Time;durP1;ratioP1;P1;durP2;ratioP2;P2;SDS_P1;SDS_P2;PMS_P1;PMS_P2;Temp;Humidity;BMP_temperature;BMP_pressure;BME280_temperature;BME280_humidity;BME280_pressure;Samples;Min_cycle;Max_cycle;Signal;HPM_P1;HPM_P2
2021/12/17 00:01:27;;;;;;;17.67;12.18;;;;;;;8.28;88.94;102966.69;4804645;29;20065;-68
2021/12/17 00:04:50;;;;;;;20.63;12.95;;;;;;;8.35;88.92;102974.47;4804506;29;20085;-68
2021/12/17 00:07:54;;;;;;;22.95;16.15;;;;;;;8.40;88.96;102969.28;4804625;29;20104;-68
2021/12/17 00:10:57;;;;;;;28.92;18.60;;;;;;;8.40;89.05;102958.84;4804724;29;20085;-68
2021/12/17 00:14:00;;;;;;;;;;;;;;;8.28;89.37;102961.47;4805141;29;20457;-68
2021/12/17 00:17:08;;;;;;;24.55;15.85;;;;;;;8.21;89.59;102965.00;4804404;29;19928;-68
2021/12/17 00:20:54;;;;;;;26.25;15.93;;;;;;;8.13;89.74;102965.00;4803436;29;20161;-68
2021/12/17 00:44:09;;;;;;;22.38;13.85;;;;;;;8.29;89.79;102958.00;4804428;29;20073;-68
2021/12/17 00:50:18;;;;;;;;;;;;;;;8.34;89.34;102961.44;4795977;29;20583;-68
2021/12/17 00:53:25;;;;;;;20.02;14.13;;;;;;;8.40;88.94;102958.84;4807571;29;20161;-68
2021/12/17 00:56:29;;;;;;;21.27;13.98;;;;;;;8.25;89.42;102971.91;4796508;29;20417;-68
2021/12/17 00:59:33;;;;;;;18.20;13.60;;;;;;;8.21;89.78;102960.63;4785677;29;20657;-68
2021/12/17 01:02:38;;;;;;;24.67;13.82;;;;;;;8.14;89.82;102962.41;4795923;29;20074;-68
2021/12/17 01:05:43;;;;;;;21.02;12.55;;;;;;;8.16;90.18;102959.78;4796235;29;20049;-69
2021/12/17 01:08:47;;;;;;;17.42;12.32;;;;;;;8.25;89.63;102962.34;4796064;29;20049;-68
2021/12/17 01:11:56;;;;;;;24.55;14.32;;;;;;;8.11;89.94;102951.13;4796284;29;20061;-68
2021/12/17 01:15:31;;;;;;;22.98;13.55;;;;;;;8.21;89.97;102959.78;4790736;29;20053;-69
2021/12/17 01:36:44;;;;;;;20.92;13.02;;;;;;;8.07;90.33;102968.50;4793706;29;20108;-68
2021/12/17 01:43:11;;;;;;;17.88;11.98;;;;;;;8.08;89.82;102979.78;4791751;29;19993;-69
2021/12/17 01:46:20;;;;;;;23.10;12.88;;;;;;;7.97;90.43;102971.97;4792265;29;20651;-69
2021/12/17 01:59:32;;;;;;;27.35;15.13;;;;;;;8.10;90.47;102965.91;4803032;29;20084;-68
2021/12/17 02:02:42;;;;;;;30.63;18.75;;;;;;;8.16;90.07;102960.63;4791942;29;20438;-68
2021/12/17 02:05:46;;;;;;;20.58;13.73;;;;;;;8.07;90.05;102963.28;4803113;29;20520;-69
2021/12/17 02:08:52;;;;;;;18.15;14.07;;;;;;;8.09;90.23;102960.66;4803094;29;20435;-68
2021/12/17 02:22:29;;;;;;;22.38;13.77;;;;;;;8.15;90.17;102958.03;4803137;29;20110;-68
2021/12/17 02:28:47;;;;;;;25.92;15.25;;;;;;;8.02;90.78;102940.72;4794587;29;20413;-69
2021/12/17 02:31:56;;;;;;;26.67;13.77;;;;;;;8.02;90.53;102949.41;4794633;29;20081;-69
2021/12/17 02:35:45;;;;;;;23.73;13.52;;;;;;;8.10;90.08;102944.16;4805820;29;20115;-69
2021/12/17 02:38:29;;;;;;;21.50;13.32;;;;;;;7.92;90.96;102937.28;4794564;29;20097;-68
2021/12/17 02:48:34;;;;;;;21.15;14.07;;;;;;;7.87;91.62;102931.19;4805545;29;20188;-68
2021/12/17 02:51:38;;;;;;;23.25;13.82;;;;;;;7.78;91.85;102924.25;4794367;29;20131;-68
2021/12/17 02:54:42;;;;;;;19.65;13.32;;;;;;;7.80;91.82;102924.28;4805631;29;20046;-69
2021/12/17 02:57:46;;;;;;;23.35;13.73;;;;;;;7.94;91.48;102917.28;4805494;29;20057;-68
2021/12/17 03:00:51;;;;;;;20.50;12.95;;;;;;;8.01;90.79;102919.00;4805373;29;20076;-69
2021/12/17 03:03:56;;;;;;;22.08;12.13;;;;;;;7.91;90.98;102925.09;4805429;29;20151;-68
2021/12/17 03:06:59;;;;;;;20.38;13.50;;;;;;;8.06;90.44;102930.28;4794154;29;20471;-69
2021/12/17 03:10:06;;;;;;;18.88;11.35;;;;;;;7.93;90.62;102934.66;4793930;29;20050;-68
2021/12/17 03:13:11;;;;;;;28.23;13.00;;;;;;;7.91;90.48;102932.91;4786687;30;20064;-68
2021/12/17 03:16:30;;;;;;;21.10;11.60;;;;;;;7.90;91.11;102931.19;4787348;30;20049;-69
2021/12/17 03:26:23;;;;;;;25.10;13.25;;;;;;;7.97;90.22;102934.66;4787137;30;20426;-69
2021/12/17 03:29:29;;;;;;;20.08;13.20;;;;;;;8.04;90.14;102933.75;4775790;30;20058;-69
2021/12/17 03:32:46;;;;;;;16.42;12.00;;;;;;;7.89;91.03;102929.47;4775667;30;20050;-68
2021/12/17 03:36:15;;;;;;;19.73;12.13;;;;;;;7.95;90.58;102936.41;4786942;30;20062;-68
2021/12/17 03:39:31;;;;;;;21.17;12.38;;;;;;;7.81;90.91;102931.22;4776078;30;20128;-69
2021/12/17 03:42:35;;;;;;;21.30;11.65;;;;;;;7.77;91.54;102926.88;4791854;29;20126;-69
2021/12/17 03:45:40;;;;;;;;;;;;;;;7.80;91.61;102926.88;4805193;29;20097;-69
2021/12/17 03:48:48;;;;;;;21.85;11.82;;;;;;;7.89;91.31;102921.66;4793286;29;20387;-69
2021/12/17 03:52:04;;;;;;;20.77;11.18;;;;;;;7.93;90.75;102923.38;4793603;29;20426;-69
2021/12/17 03:55:08;;;;;;;20.58;11.75;;;;;;;8.00;90.46;102919.88;4793276;29;20053;-69
2021/12/17 03:58:17;;;;;;;18.33;11.50;;;;;;;8.03;89.92;102916.38;4805146;29;20053;-69
2021/12/17 04:01:22;;;;;;;16.58;9.98;;;;;;;7.90;90.06;102910.34;4783184;29;20566;-69
2021/12/17 04:04:26;;;;;;;22.00;10.82;;;;;;;7.79;90.65;102919.94;4793414;29;20477;-69
2021/12/17 04:07:48;;;;;;;18.88;10.95;;;;;;;7.79;90.76;102917.34;4793183;29;20061;-69
2021/12/17 04:11:21;;;;;;;19.20;11.15;;;;;;;7.90;90.57;102915.56;4804443;29;20102;-69
2021/12/17 04:14:35;;;;;;;17.67;10.43;;;;;;;7.93;90.39;102915.56;4792941;29;20496;-69
2021/12/17 04:17:44;;;;;;;18.83;11.13;;;;;;;8.02;89.89;102918.13;4793282;29;20053;-69
2021/12/17 04:20:48;;;;;;;17.17;10.77;;;;;;;8.03;89.66;102905.97;4804518;29;20529;-69
2021/12/17 04:23:54;;;;;;;21.20;11.45;;;;;;;7.93;89.56;102902.53;4795424;29;20075;-69
2021/12/17 04:26:57;;;;;;;16.85;9.88;;;;;;;7.90;89.72;102897.31;4808193;29;20058;-69
2021/12/17 04:30:02;;;;;;;18.10;10.55;;;;;;;7.91;89.96;102901.66;4807995;29;20524;-69
2021/12/17 04:33:06;;;;;;;16.73;9.98;;;;;;;7.95;89.64;102898.19;4796374;29;20111;-69
2021/12/17 04:36:14;;;;;;;16.52;9.52;;;;;;;7.93;89.68;102907.75;4796483;29;20524;-69
2021/12/17 04:39:19;;;;;;;16.90;9.13;;;;;;;7.90;89.78;102910.34;4796560;29;20596;-69
2021/12/17 04:45:56;;;;;;;15.93;10.23;;;;;;;7.85;89.72;102910.38;4795924;29;20076;-68
2021/12/17 04:59:12;;;;;;;17.52;10.65;;;;;;;7.72;90.82;102918.22;4796495;29;20058;-68
2021/12/17 05:02:17;;;;;;;22.70;11.25;;;;;;;7.78;90.51;102912.97;4807173;29;20058;-68
2021/12/17 05:05:32;;;;;;;;;;;;;;;7.81;90.29;102905.16;4796085;29;20053;-69
2021/12/17 05:08:41;;;;;;;19.77;10.38;;;;;;;7.76;90.36;102918.22;4790587;29;20285;-68
2021/12/17 05:18:34;;;;;;;11.75;8.20;;;;;;;7.86;89.60;102911.25;4789057;30;20063;-68
2021/12/17 05:21:38;;;;;;;14.07;9.18;;;;;;;7.83;89.73;102906.03;4788894;30;20081;-68
2021/12/17 05:24:43;;;;;;;18.52;9.43;;;;;;;7.80;89.90;102908.66;4777798;30;20068;-68
2021/12/17 05:27:46;;;;;;;19.27;10.43;;;;;;;7.82;89.68;102919.94;4777864;30;20477;-68
2021/12/17 05:30:50;;;;;;;17.45;10.57;;;;;;;7.87;89.69;102919.03;4784399;29;20061;-67
2021/12/17 05:33:56;;;;;;;21.65;10.20;;;;;;;7.80;89.51;102911.25;4785318;29;20057;-68
2021/12/17 05:37:02;;;;;;;20.33;10.48;;;;;;;7.81;90.17;102907.78;4800476;29;20086;-68
2021/12/17 05:40:07;;;;;;;16.42;9.75;;;;;;;7.69;90.32;102912.16;4790982;29;20593;-69
2021/12/17 05:43:13;;;;;;;14.27;8.70;;;;;;;7.77;90.08;102911.25;4791439;29;20049;-67
2021/12/17 05:46:23;;;;;;;15.38;9.65;;;;;;;7.69;90.13;102919.97;4791616;29;20093;-67
2021/12/17 05:49:27;;;;;;;21.35;10.15;;;;;;;7.65;90.35;102909.53;4801423;29;20130;-67
2021/12/17 05:52:33;;;;;;;17.20;9.20;;;;;;;7.66;90.43;102909.56;4791484;29;20121;-67
2021/12/17 05:55:36;;;;;;;;;;;;;;;7.76;90.17;102909.53;4791884;29;20417;-68
2021/12/17 05:58:39;;;;;;;18.58;9.82;;;;;;;7.66;90.20;102903.50;4802037;29;20052;-67
2021/12/17 06:01:43;;;;;;;15.32;9.13;;;;;;;7.66;90.51;102899.13;4791152;29;20070;-67
2021/12/17 06:04:46;;;;;;;13.82;8.45;;;;;;;7.72;89.95;102899.97;4819679;29;20053;-67
2021/12/17 06:07:50;;;;;;;9.30;6.35;;;;;;;7.62;90.14;102906.94;4768237;30;20057;-67
2021/12/17 06:10:54;;;;;;;15.60;8.70;;;;;;;7.65;89.80;102910.41;4801488;29;20053;-67
2021/12/17 06:13:58;;;;;;;21.40;10.90;;;;;;;7.62;89.95;102906.94;4790727;29;20050;-67
2021/12/17 06:17:05;;;;;;;19.75;12.32;;;;;;;7.66;90.20;102916.50;4799269;29;20437;-68
2021/12/17 06:20:19;;;;;;;20.40;11.55;;;;;;;7.70;89.65;102910.41;4808188;29;20160;-67
2021/12/17 06:23:23;;;;;;;17.77;11.75;;;;;;;7.60;90.14;102919.97;4797994;29;20059;-68
2021/12/17 06:26:28;;;;;;;16.77;10.02;;;;;;;7.54;90.43;102930.41;4789596;29;20124;-67
2021/12/17 06:29:33;;;;;;;24.80;15.02;;;;;;;7.62;89.89;102939.03;4790132;29;20103;-67
2021/12/17 06:32:42;;;;;;;25.08;14.45;;;;;;;7.64;89.58;102950.34;4807627;29;20470;-67
2021/12/17 06:35:45;;;;;;;17.88;8.63;;;;;;;7.51;90.37;102948.63;4808909;29;20084;-67
2021/12/17 06:38:50;;;;;;;14.38;9.07;;;;;;;7.57;90.30;102951.22;4778523;29;20053;-67
2021/12/17 06:41:56;;;;;;;13.88;8.63;;;;;;;7.62;89.89;102944.25;4790737;29;20266;-68
2021/12/17 06:45:04;;;;;;;;;;;;;;;7.43;90.30;102938.22;4794056;29;20052;-67
2021/12/17 06:48:09;;;;;;;12.82;8.80;;;;;;;7.31;89.67;102937.38;4797037;29;20437;-68
2021/12/17 07:09:44;;;;;;;23.98;13.85;;;;;;;7.66;88.94;102925.19;4813621;29;20569;-67
2021/12/17 07:36:23;;;;;;;16.85;10.60;;;;;;;7.53;87.63;102928.69;4789912;29;20578;-68
2021/12/17 07:39:31;;;;;;;13.73;11.05;;;;;;;7.60;87.82;102933.00;4788548;29;20053;-68
2021/12/17 07:42:45;;;;;;;12.75;8.18;;;;;;;7.45;88.93;102930.41;4799436;29;20061;-68
2021/12/17 07:46:12;;;;;;;9.98;6.40;;;;;;;7.52;89.20;102937.34;4801065;29;20426;-68
2021/12/17 07:49:15;;;;;;;11.05;7.78;;;;;;;7.52;88.59;102939.06;4789152;29;20097;-68
2021/12/17 07:52:19;;;;;;;8.27;5.45;;;;;;;7.41;87.96;102939.97;4800207;29;20049;-68
2021/12/17 07:55:22;;;;;;;10.23;6.65;;;;;;;7.50;88.42;102944.28;4789168;29;20065;-68
2021/12/17 07:58:26;;;;;;;10.35;7.20;;;;;;;7.58;88.90;102946.88;4788681;29;20086;-69
2021/12/17 08:01:30;;;;;;;10.52;6.45;;;;;;;7.57;88.53;102952.97;4789686;29;20545;-69
2021/12/17 08:04:34;;;;;;;10.57;7.30;;;;;;;7.63;88.38;102961.63;4788842;29;20058;-69
2021/12/17 08:07:40;;;;;;;8.05;5.38;;;;;;;7.66;87.20;102966.84;4787018;29;20053;-68
2021/12/17 08:10:47;;;;;;;5.68;4.10;;;;;;;7.45;86.93;102969.44;4794382;29;20054;-68
2021/12/17 08:13:53;;;;;;;6.82;4.65;;;;;;;7.62;85.45;102970.28;4774795;30;20124;-68
2021/12/17 08:17:09;;;;;;;7.55;4.57;;;;;;;7.43;83.56;102976.38;4775137;30;20050;-68
2021/12/17 08:24:17;;;;;;;4.55;2.70;;;;;;;7.04;81.66;102991.09;4785647;30;20097;-68
2021/12/17 08:27:25;;;;;;;3.20;2.00;;;;;;;6.98;78.71;103001.47;4775355;30;20636;-68
2021/12/17 08:30:38;;;;;;;3.78;2.47;;;;;;;6.93;80.06;102998.03;4795183;29;20078;-68
2021/12/17 08:33:46;;;;;;;3.42;2.33;;;;;;;7.23;79.00;102998.06;4775219;30;20552;-68
2021/12/17 08:36:50;;;;;;;4.97;2.80;;;;;;;6.91;79.35;103004.94;4786310;30;20058;-68
2021/12/17 08:39:53;;;;;;;4.18;2.40;;;;;;;7.20;79.90;103008.47;4775250;30;20475;-68
2021/12/17 08:43:11;;;;;;;4.15;2.55;;;;;;;7.19;79.30;103008.47;4774949;30;20050;-68
2021/12/17 08:46:20;;;;;;;4.88;2.72;;;;;;;7.38;80.08;103007.63;4786280;30;20077;-68
2021/12/17 08:49:40;;;;;;;5.65;3.38;;;;;;;7.58;80.40;103010.22;4775304;30;20151;-68
2021/12/17 08:52:47;;;;;;;4.18;2.53;;;;;;;7.67;80.18;103015.44;4786464;30;20112;-68
2021/12/17 08:55:53;;;;;;;4.10;1.98;;;;;;;7.59;79.32;103014.56;4785558;30;20143;-68
2021/12/17 08:59:02;;;;;;;4.30;2.30;;;;;;;7.67;79.28;103014.56;4775200;30;20070;-68
2021/12/17 09:02:15;;;;;;;4.70;2.45;;;;;;;7.80;78.10;103012.84;4785230;30;20058;-68
2021/12/17 09:05:26;;;;;;;3.28;2.10;;;;;;;7.87;76.67;103012.81;4775097;30;20148;-68
2021/12/17 09:08:30;;;;;;;3.28;2.05;;;;;;;7.98;77.15;103030.19;4785670;29;20100;-68
2021/12/17 09:11:36;;;;;;;3.45;2.40;;;;;;;7.96;77.54;103022.38;4806976;29;20085;-68
2021/12/17 09:15:06;;;;;;;4.15;2.38;;;;;;;7.78;78.71;103027.59;4807252;29;20148;-68
2021/12/17 09:18:41;;;;;;;3.30;2.17;;;;;;;7.84;78.80;103022.38;4795953;29;20041;-68
2021/12/17 09:21:59;;;;;;;3.53;2.05;;;;;;;7.93;78.12;103019.75;4795910;29;20535;-68
2021/12/17 09:25:15;;;;;;;5.40;2.08;;;;;;;7.97;77.38;103028.44;4795764;29;20054;-68
2021/12/17 09:28:31;;;;;;;4.38;2.58;;;;;;;7.89;78.43;103036.28;4795813;29;20077;-68
2021/12/17 09:31:37;;;;;;;3.47;2.17;;;;;;;7.82;79.53;103040.63;4806892;29;20545;-68
2021/12/17 09:34:39;;;;;;;;;;;;;;;7.84;79.52;103044.06;4807290;29;20055;-68
2021/12/17 09:37:43;;;;;;;4.47;2.47;;;;;;;7.94;78.95;103050.16;4806545;29;20352;-68
2021/12/17 09:40:46;;;;;;;3.85;2.10;;;;;;;7.85;78.32;103060.59;4806970;29;20108;-68
2021/12/17 09:43:49;;;;;;;;;;;;;;;7.84;80.05;103053.63;4807179;29;20053;-68
2021/12/17 09:46:57;;;;;;;3.72;2.30;;;;;;;7.83;79.66;103050.16;4806834;29;20078;-68
2021/12/17 09:50:01;;;;;;;3.70;2.40;;;;;;;7.97;78.44;103052.75;4806657;29;20520;-68
2021/12/17 09:53:03;;;;;;;;;;;;;;;8.02;77.69;103045.81;4807274;29;20053;-68
2021/12/17 09:56:07;;;;;;;6.43;2.28;;;;;;;8.01;78.34;103051.91;4806567;29;19971;-68
2021/12/17 09:59:12;;;;;;;7.53;2.70;;;;;;;8.05;77.65;103047.53;4806623;29;20065;-68
2021/12/17 10:02:15;;;;;;;5.00;2.75;;;;;;;8.11;77.65;103051.00;4806215;29;20085;-68
2021/12/17 10:05:31;;;;;;;4.60;3.10;;;;;;;8.03;77.17;103054.47;4806368;29;20467;-68
2021/12/17 10:08:47;;;;;;;5.65;3.13;;;;;;;8.09;76.92;103055.34;4805405;29;20488;-68
2021/12/17 10:12:01;;;;;;;22.13;16.98;;;;;;;8.12;76.19;103044.91;4806094;29;20049;-68
2021/12/17 10:15:17;;;;;;;8.70;5.50;;;;;;;8.10;76.95;103041.47;4806605;29;20070;-68
2021/12/17 10:18:35;;;;;;;4.80;3.10;;;;;;;8.20;76.62;103037.09;4806402;29;20073;-68
2021/12/17 10:21:46;;;;;;;5.20;2.65;;;;;;;7.93;76.20;103032.78;4805702;29;20774;-68
2021/12/17 10:25:06;;;;;;;4.63;3.13;;;;;;;8.17;76.18;103016.25;4805170;29;20433;-68
2021/12/17 10:28:11;;;;;;;4.47;2.50;;;;;;;8.07;76.13;103015.41;4806020;29;20521;-68
2021/12/17 10:31:15;;;;;;;3.60;2.47;;;;;;;8.23;75.20;103015.34;4804794;29;20139;-68
2021/12/17 10:34:18;;;;;;;6.03;2.75;;;;;;;7.98;74.76;103015.44;4804978;29;20049;-68
2021/12/17 10:37:38;;;;;;;5.50;2.70;;;;;;;7.65;76.82;103008.50;4804380;29;20492;-68
2021/12/17 10:40:51;;;;;;;5.63;2.38;;;;;;;7.80;77.10;103012.84;4804666;29;20050;-68
2021/12/17 10:43:59;;;;;;;4.53;2.65;;;;;;;7.92;76.65;103012.81;4804784;29;20088;-68
2021/12/17 10:47:15;;;;;;;4.00;2.42;;;;;;;8.18;75.94;103017.13;4805629;29;20127;-68
2021/12/17 10:50:24;;;;;;;5.32;2.60;;;;;;;8.24;75.45;103004.94;4794516;29;20441;-67
2021/12/17 10:53:28;;;;;;;3.90;2.13;;;;;;;8.29;76.21;103003.16;4794434;29;20141;-67
2021/12/17 10:56:38;;;;;;;5.45;2.20;;;;;;;8.31;76.01;102990.13;4805695;29;20057;-68
2021/12/17 10:59:45;;;;;;;4.13;2.55;;;;;;;8.36;75.34;102983.19;4805498;29;20054;-68
2021/12/17 11:02:53;;;;;;;3.38;2.22;;;;;;;8.46;75.34;102991.88;4805159;29;20071;-67
2021/12/17 11:05:57;;;;;;;4.10;2.10;;;;;;;8.37;75.16;102997.94;4805255;29;20070;-68
2021/12/17 11:09:05;;;;;;;5.57;2.67;;;;;;;8.38;75.52;102999.69;4789334;29;20111;-68
2021/12/17 11:12:39;;;;;;;5.55;2.30;;;;;;;8.39;75.75;102993.59;4804517;29;20107;-68
2021/12/17 11:15:42;;;;;;;6.95;2.83;;;;;;;8.36;75.37;102997.09;4803742;29;20057;-68
2021/12/17 11:18:47;;;;;;;;;;;;;;;8.34;75.50;102996.22;4805555;29;20517;-68
2021/12/17 11:21:50;;;;;;;3.30;1.98;;;;;;;8.35;74.88;102991.84;4805208;29;20038;-68
2021/12/17 11:24:54;;;;;;;3.92;2.50;;;;;;;8.31;75.45;102997.97;4805051;29;20050;-68
2021/12/17 11:27:57;;;;;;;4.70;1.92;;;;;;;8.35;75.67;102994.47;4804896;29;20049;-68
2021/12/17 11:31:00;;;;;;;;;;;;;;;8.40;75.40;103004.94;4805387;29;20586;-68
2021/12/17 11:34:04;;;;;;;3.28;1.83;;;;;;;8.38;75.43;102992.75;4804478;29;20289;-67
2021/12/17 11:37:09;;;;;;;4.63;2.45;;;;;;;8.47;75.42;102989.25;4803615;29;20133;-68
2021/12/17 11:40:53;;;;;;;3.85;1.90;;;;;;;8.49;75.45;102982.28;4793569;29;20054;-68
2021/12/17 11:44:01;;;;;;;9.48;2.13;;;;;;;8.43;75.28;102976.22;4804999;29;20058;-68
2021/12/17 11:47:09;;;;;;;3.55;1.83;;;;;;;8.46;75.79;102966.66;4804562;29;20050;-68
2021/12/17 11:50:16;;;;;;;3.47;2.15;;;;;;;8.54;74.96;102951.81;4804849;29;20123;-68
2021/12/17 11:53:23;;;;;;;6.25;1.40;;;;;;;8.59;74.45;102957.03;4803134;29;20513;-68
2021/12/17 11:56:46;;;;;;;4.03;1.38;;;;;;;8.66;74.26;102966.56;4804765;29;20050;-68
2021/12/17 11:59:49;;;;;;;2.70;1.17;;;;;;;8.63;74.33;102952.66;4814803;29;20050;-69
2021/12/17 12:02:56;;;;;;;3.03;1.70;;;;;;;8.68;73.88;102946.56;4818231;29;20114;-68
2021/12/17 12:06:02;;;;;;;4.13;1.38;;;;;;;8.70;74.30;102955.22;4815724;29;20114;-68
2021/12/17 12:09:05;;;;;;;3.40;2.15;;;;;;;8.76;74.66;102954.31;4800903;29;20286;-69
2021/12/17 12:12:10;;;;;;;2.45;1.23;;;;;;;8.80;74.99;102956.03;4800873;29;20476;-68
2021/12/17 12:15:16;;;;;;;3.65;1.20;;;;;;;8.81;74.80;102957.78;4817990;29;20195;-68
2021/12/17 12:18:21;;;;;;;3.17;1.17;;;;;;;8.83;74.77;102956.00;4817960;29;20558;-68
2021/12/17 12:21:32;;;;;;;4.25;1.08;;;;;;;8.70;74.75;102965.66;4817798;29;20095;-68
2021/12/17 12:24:35;;;;;;;2.95;1.05;;;;;;;8.82;75.29;102962.13;4818254;29;20045;-68
2021/12/17 12:27:46;;;;;;;4.00;0.90;;;;;;;8.74;75.30;102956.97;4806768;29;20122;-68
2021/12/17 12:30:52;;;;;;;2.08;1.00;;;;;;;8.74;75.69;102956.06;4803532;29;20054;-68
2021/12/17 12:37:07;;;;;;;2.72;0.90;;;;;;;8.62;75.28;102946.59;4803547;29;20066;-68
2021/12/17 12:40:16;;;;;;;3.85;1.10;;;;;;;8.65;75.46;102945.69;4804339;29;20413;-68
2021/12/17 12:43:31;;;;;;;2.20;0.88;;;;;;;8.61;75.54;102939.63;4804171;29;20124;-68
2021/12/17 12:46:56;;;;;;;2.13;0.90;;;;;;;8.67;75.72;102936.13;4807081;29;20099;-68
2021/12/17 12:50:06;;;;;;;3.50;1.15;;;;;;;8.69;75.49;102942.19;4806455;29;20053;-68
2021/12/17 12:53:11;;;;;;;2.63;1.02;;;;;;;8.70;75.33;102946.53;4806962;29;20524;-68
2021/12/17 12:56:19;;;;;;;3.90;0.93;;;;;;;8.67;75.11;102944.81;4807018;29;20077;-68
2021/12/17 12:59:24;;;;;;;2.30;1.20;;;;;;;8.72;75.79;102952.63;4807020;29;20142;-68
2021/12/17 13:02:27;;;;;;;4.13;2.42;;;;;;;8.61;75.88;102956.16;4806989;29;20121;-68
2021/12/17 13:05:32;;;;;;;;;;;;;;;8.59;76.65;102957.03;4804787;29;20050;-68
2021/12/17 13:08:35;;;;;;;2.65;0.80;;;;;;;8.55;76.42;102957.91;4807410;29;20057;-68
2021/12/17 13:11:45;;;;;;;3.58;0.70;;;;;;;8.54;76.69;102948.34;4807331;29;20478;-68
2021/12/17 13:14:48;;;;;;;3.00;0.90;;;;;;;8.60;76.62;102943.09;4807356;29;20118;-68
2021/12/17 13:24:36;;;;;;;2.42;1.00;;;;;;;8.54;76.37;102943.13;4807103;29;20057;-68
2021/12/17 13:27:54;;;;;;;2.47;0.98;;;;;;;8.62;76.03;102936.16;4807169;29;20655;-68
2021/12/17 13:30:58;;;;;;;5.80;1.13;;;;;;;8.43;76.42;102924.94;4807032;29;20069;-68
2021/12/17 13:34:05;;;;;;;;;;;;;;;8.28;76.86;102910.22;4796334;29;20149;-68
2021/12/17 13:37:30;;;;;;;2.53;1.23;;;;;;;8.33;77.05;102916.28;4806031;29;19924;-68
2021/12/17 13:40:36;;;;;;;2.95;1.50;;;;;;;8.41;76.92;102925.81;4800642;29;20050;-69
2021/12/17 13:43:41;;;;;;;7.35;3.10;;;;;;;8.55;76.44;102930.09;4802027;29;20050;-68
2021/12/17 13:46:44;;;;;;;5.20;2.60;;;;;;;8.50;76.60;102924.03;4802639;29;20046;-68
2021/12/17 13:49:51;;;;;;;16.88;10.63;;;;;;;8.40;76.59;102938.00;4802998;29;20053;-68
2021/12/17 13:52:58;;;;;;;14.00;9.95;;;;;;;8.51;76.27;102938.78;4802331;29;20085;-68
2021/12/17 13:56:03;;;;;;;7.85;4.30;;;;;;;8.30;77.72;102933.69;4802718;29;20097;-68
2021/12/17 13:59:08;;;;;;;4.10;2.63;;;;;;;8.37;77.43;102931.03;4802321;29;20534;-68
2021/12/17 14:02:15;;;;;;;5.60;2.33;;;;;;;8.30;77.23;102936.28;4802330;29;20495;-69
2021/12/17 14:05:27;;;;;;;8.40;3.35;;;;;;;8.51;77.13;102941.41;4799977;29;20108;-69
2021/12/17 14:08:30;;;;;;;10.73;4.68;;;;;;;8.55;77.26;102945.75;4802382;29;20099;-68
2021/12/17 14:11:34;;;;;;;7.22;4.18;;;;;;;8.57;76.80;102946.59;4802105;29;20046;-68
2021/12/17 14:14:37;;;;;;;;;;;;;;;8.60;77.37;102943.97;4791634;29;20041;-68
2021/12/17 14:17:44;;;;;;;4.05;2.25;;;;;;;8.55;77.23;102945.75;4802321;29;19924;-68
2021/12/17 14:21:01;;;;;;;3.85;1.90;;;;;;;8.34;78.13;102940.59;4802390;29;21142;-68
2021/12/17 14:24:04;;;;;;;3.55;1.77;;;;;;;8.37;78.20;102940.59;4803376;29;20529;-68
2021/12/17 14:27:07;;;;;;;4.93;2.58;;;;;;;8.52;78.22;102940.56;4802305;29;20073;-68
2021/12/17 14:30:11;;;;;;;;;;;;;;;8.54;77.90;102938.78;4780581;29;20042;-68
2021/12/17 14:33:20;;;;;;;7.63;2.15;;;;;;;8.38;78.20;102932.78;4801647;29;19923;-68
2021/12/17 14:36:37;;;;;;;6.93;1.83;;;;;;;8.51;78.31;102937.94;4800480;29;20065;-68
2021/12/17 14:39:44;;;;;;;4.65;1.83;;;;;;;8.52;78.72;102937.94;4800861;29;20057;-68
2021/12/17 14:42:51;;;;;;;3.83;1.88;;;;;;;8.46;78.54;102932.75;4801093;29;20529;-68
2021/12/17 14:46:17;;;;;;;6.57;1.90;;;;;;;8.43;78.69;102945.81;4800592;29;20086;-68
2021/12/17 15:05:22;;;;;;;5.05;1.75;;;;;;;8.35;79.51;102947.53;4799986;29;20101;-68
2021/12/17 15:08:27;;;;;;;3.40;1.45;;;;;;;8.26;79.72;102926.72;4798136;29;20103;-69
2021/12/17 15:11:37;;;;;;;3.28;1.10;;;;;;;8.20;79.75;102937.16;4800406;29;20417;-68
2021/12/17 15:14:40;;;;;;;6.85;3.80;;;;;;;8.20;79.66;102931.94;4800988;29;20134;-68
2021/12/17 15:17:45;;;;;;;5.47;2.17;;;;;;;8.19;80.03;102938.91;4791976;29;20208;-68
2021/12/17 15:20:52;;;;;;;11.65;2.42;;;;;;;8.30;80.51;102931.94;4801344;29;20099;-68
2021/12/17 15:23:55;;;;;;;9.25;2.70;;;;;;;8.24;80.58;102926.75;4800261;29;20444;-68
2021/12/17 15:26:59;;;;;;;9.55;2.78;;;;;;;8.29;80.31;102926.72;4801343;29;20149;-68
2021/12/17 15:30:04;;;;;;;;;;;;;;;8.30;80.11;102923.25;4788314;29;20409;-68
2021/12/17 15:33:09;;;;;;;4.25;1.73;;;;;;;8.24;80.11;102925.88;4799036;29;20632;-71
2021/12/17 15:36:12;;;;;;;6.82;3.10;;;;;;;8.18;80.60;102928.50;4781109;29;20108;-68
2021/12/17 15:39:15;;;;;;;8.02;1.65;;;;;;;8.13;80.56;102931.97;4783081;30;20160;-68
2021/12/17 15:42:18;;;;;;;;;;;;;;;8.08;80.53;102925.94;4783083;30;20050;-68
2021/12/17 15:45:22;;;;;;;5.38;1.40;;;;;;;8.20;80.63;102917.22;4784633;29;19927;-68
2021/12/17 15:48:25;;;;;;;;;;;;;;;8.22;80.93;102919.78;4800921;29;20058;-68
2021/12/17 15:51:28;;;;;;;3.73;1.23;;;;;;;8.17;81.01;102927.66;4801145;29;19975;-68
2021/12/17 15:54:32;;;;;;;5.05;1.33;;;;;;;8.07;81.53;102924.22;4800797;29;20622;-68
2021/12/17 15:57:35;;;;;;;5.35;1.52;;;;;;;8.01;82.01;102932.03;4789128;29;20050;-68
2021/12/17 16:00:39;;;;;;;5.03;1.90;;;;;;;8.05;81.09;102928.53;4808333;29;20049;-68
2021/12/17 16:03:43;;;;;;;6.05;1.20;;;;;;;7.91;82.12;102928.59;4818214;29;20320;-69
2021/12/17 16:06:47;;;;;;;4.78;1.48;;;;;;;7.92;81.99;102932.06;4782210;30;20059;-69
2021/12/17 16:17:05;;;;;;;3.15;0.85;;;;;;;7.83;81.87;102934.69;4782551;30;20169;-68
2021/12/17 16:23:52;;;;;;;4.72;1.10;;;;;;;7.93;81.50;102945.06;4789156;30;20008;-68
2021/12/17 16:26:55;;;;;;;6.15;2.35;;;;;;;7.95;81.66;102941.63;4788733;30;20127;-68
2021/12/17 16:29:58;;;;;;;;;;;;;;;7.94;81.46;102935.50;4790241;30;20476;-68
2021/12/17 16:33:01;;;;;;;10.02;4.10;;;;;;;7.97;81.51;102938.13;4789763;30;20024;-68
2021/12/17 16:36:05;;;;;;;;;;;;;;;7.96;81.97;102933.78;4790197;30;20461;-68
2021/12/17 16:39:16;;;;;;;24.05;2.60;;;;;;;7.79;81.41;102932.97;4805897;29;19924;-69
2021/12/17 16:42:20;;;;;;;8.65;3.15;;;;;;;7.69;80.92;102934.72;4807646;29;20053;-68
2021/12/17 16:45:30;;;;;;;6.82;1.92;;;;;;;7.55;81.90;102934.72;4807613;29;20134;-68
2021/12/17 16:48:36;;;;;;;5.63;1.60;;;;;;;7.40;82.54;102943.44;4472971;29;9999999;-69
2021/12/17 16:51:41;;;;;;;5.55;1.45;;;;;;;7.41;82.56;102933.88;4785797;30;20058;-69
2021/12/17 16:54:44;;;;;;;4.32;1.98;;;;;;;7.40;81.95;102938.22;4785310;30;20046;-69
2021/12/17 16:57:48;;;;;;;;;;;;;;;7.22;82.49;102936.47;4779870;29;20085;-69
2021/12/17 17:00:51;;;;;;;5.55;1.45;;;;;;;7.08;83.17;102938.19;4803765;29;20279;-69
2021/12/17 17:03:55;;;;;;;6.28;2.13;;;;;;;6.91;83.13;102942.53;4803503;29;20073;-69
2021/12/17 17:06:58;;;;;;;6.55;1.23;;;;;;;6.83;83.53;102933.81;4803172;29;20042;-68
2021/12/17 17:10:02;;;;;;;7.10;1.83;;;;;;;6.92;83.59;102936.44;4802758;29;20078;-69
2021/12/17 17:13:05;;;;;;;5.22;2.75;;;;;;;6.89;82.77;102939.03;4802456;29;20589;-67
2021/12/17 17:16:09;;;;;;;8.60;2.90;;;;;;;6.89;82.45;102941.63;4801611;29;20046;-67
2021/12/17 17:19:12;;;;;;;;;;;;;;;6.85;82.36;102942.50;4803909;29;20139;-67
2021/12/17 17:22:18;;;;;;;5.85;2.25;;;;;;;6.65;82.87;102945.94;4803349;29;19924;-67
2021/12/17 17:25:21;;;;;;;3.88;1.75;;;;;;;6.54;83.54;102960.66;4803038;29;20111;-67
2021/12/17 17:28:25;;;;;;;;;;;;;;;6.64;83.06;102951.16;4785386;29;20441;-67
2021/12/17 17:31:29;;;;;;;4.05;1.60;;;;;;;6.60;82.67;102954.56;4783121;29;20411;-67
2021/12/17 17:34:33;;;;;;;4.82;2.00;;;;;;;6.67;82.71;102959.81;4784404;29;20100;-66
2021/12/17 17:37:37;;;;;;;4.32;2.55;;;;;;;6.42;83.68;102958.00;4784844;29;20058;-67
2021/12/17 17:40:40;;;;;;;5.72;1.65;;;;;;;6.41;83.34;102961.44;4791329;29;20157;-67
2021/12/17 17:43:44;;;;;;;3.05;1.90;;;;;;;6.41;82.75;102957.09;4799451;29;20474;-67
2021/12/17 17:46:47;;;;;;;8.50;3.10;;;;;;;6.39;82.26;102948.44;4801953;29;20080;-69
2021/12/17 17:49:55;;;;;;;4.68;2.40;;;;;;;6.28;82.45;102953.59;4802672;29;20421;-68